createdAt,value
2022-12-04T00:01:23.454Z,-2.60
2022-12-04T00:03:56.323Z,-2.59
2022-12-04T00:06:24.636Z,-2.47
2022-12-04T00:08:53.171Z,-2.40
2022-12-04T00:11:23.881Z,-2.72
2022-12-04T00:13:51.956Z,-2.64
2022-12-04T00:16:21.182Z,-2.66
2022-12-04T00:18:49.018Z,-2.75
2022-12-04T00:21:17.494Z,-2.57
2022-12-04T00:23:46.515Z,-2.80
2022-12-04T00:26:17.022Z,-2.79
2022-12-04T00:28:44.970Z,-2.56
2022-12-04T00:31:15.347Z,-2.64
2022-12-04T00:33:42.991Z,-2.46
2022-12-04T00:36:13.155Z,-2.75
2022-12-04T00:38:41.322Z,-2.50
2022-12-04T00:41:13.769Z,-2.81
2022-12-04T00:43:41.966Z,-2.78
2022-12-04T00:46:10.054Z,-2.50
2022-12-04T00:48:37.610Z,-2.50
2022-12-04T00:51:06.756Z,-2.63
2022-12-04T00:53:34.778Z,-2.66
2022-12-04T00:56:06.616Z,-2.36
2022-12-04T00:58:34.155Z,-2.32
2022-12-04T01:01:03.763Z,-2.35
2022-12-04T01:03:31.610Z,-2.63
2022-12-04T01:05:59.581Z,-2.69
2022-12-04T01:08:27.210Z,-2.32
2022-12-04T01:10:54.469Z,-2.60
2022-12-04T01:13:23.722Z,-2.59
2022-12-04T01:15:50.954Z,-2.64
2022-12-04T01:18:18.897Z,-2.69
2022-12-04T01:20:51.995Z,-2.64
2022-12-04T01:23:19.874Z,-2.47
2022-12-04T01:25:58.168Z,-2.44
2022-12-04T01:28:25.914Z,-2.71
2022-12-04T01:31:18.416Z,-2.53
2022-12-04T01:33:46.398Z,-2.50
2022-12-04T01:36:19.690Z,-2.52
2022-12-04T01:38:47.329Z,-2.55
2022-12-04T01:41:16.849Z,-2.62
2022-12-04T01:43:44.586Z,-2.74
2022-12-04T01:46:12.122Z,-2.58
2022-12-04T01:48:42.563Z,-2.56
2022-12-04T01:51:22.786Z,-2.47
2022-12-04T01:53:57.805Z,-2.60
2022-12-04T01:56:37.074Z,-2.51
2022-12-04T01:59:07.452Z,-2.45
2022-12-04T02:01:43.335Z,-2.46
2022-12-04T02:04:10.942Z,-2.49
2022-12-04T02:06:38.173Z,-2.38
2022-12-04T02:09:05.759Z,-2.46
2022-12-04T02:12:01.857Z,-2.37
2022-12-04T02:14:51.268Z,-2.21
2022-12-04T02:17:36.840Z,-2.21
2022-12-04T02:20:31.587Z,-2.11
2022-12-04T02:23:29.904Z,-2.16
2022-12-04T02:26:12.592Z,-2.28
2022-12-04T02:28:56.718Z,-2.23
2022-12-04T02:31:34.198Z,-2.40
2022-12-04T02:34:07.356Z,-2.32
2022-12-04T02:36:45.168Z,-2.21
2022-12-04T02:39:47.544Z,-2.37
2022-12-04T02:42:18.605Z,-2.31
2022-12-04T02:44:53.542Z,-2.36
2022-12-04T02:47:24.737Z,-2.21
2022-12-04T02:49:58.381Z,-2.26
2022-12-04T02:52:36.816Z,-2.32
2022-12-04T02:55:17.865Z,-2.25
2022-12-04T02:57:51.330Z,-2.21
2022-12-04T03:00:19.882Z,-2.26
2022-12-04T03:02:59.479Z,-2.05
2022-12-04T03:05:38.922Z,-2.17
2022-12-04T03:08:12.075Z,-2.20
2022-12-04T03:10:47.120Z,-2.17
2022-12-04T03:13:44.758Z,-2.19
2022-12-04T03:16:36.203Z,-2.20
2022-12-04T03:19:09.218Z,-2.03
2022-12-04T03:21:40.162Z,-2.04
2022-12-04T03:24:38.090Z,-1.88
2022-12-04T03:27:30.768Z,-2.03
2022-12-04T03:30:01.172Z,-1.96
2022-12-04T03:32:46.522Z,-2.05
2022-12-04T03:35:33.382Z,-1.86
2022-12-04T03:38:03.932Z,-2.00
2022-12-04T03:40:39.980Z,-1.94
2022-12-04T03:43:33.468Z,-1.90
2022-12-04T03:46:20.912Z,-1.75
2022-12-04T03:48:55.546Z,-1.86
2022-12-04T03:51:36.730Z,-1.91
2022-12-04T03:54:17.236Z,-1.44
2022-12-04T03:56:53.991Z,-1.76
2022-12-04T03:59:27.798Z,-1.90
2022-12-04T04:02:00.005Z,-1.92
2022-12-04T04:04:29.625Z,-1.83
2022-12-04T04:07:03.274Z,-1.75
2022-12-04T04:09:37.274Z,-1.49
2022-12-04T04:12:14.012Z,-1.63
2022-12-04T04:15:08.798Z,-1.74
2022-12-04T04:18:02.832Z,-1.55
2022-12-04T04:21:02.848Z,-1.55
2022-12-04T04:23:54.967Z,-1.33
2022-12-04T04:26:24.396Z,-1.35
2022-12-04T04:28:52.025Z,-1.31
2022-12-04T04:31:29.297Z,-1.34
2022-12-04T04:34:18.675Z,-1.41
2022-12-04T04:37:00.780Z,-1.21
2022-12-04T04:39:36.888Z,-1.23
2022-12-04T04:42:17.765Z,-1.18
2022-12-04T04:44:52.014Z,-1.11
2022-12-04T04:47:27.520Z,-1.28
2022-12-04T04:49:57.283Z,-1.18
2022-12-04T04:52:25.242Z,-1.02
2022-12-04T04:54:52.972Z,-1.22
2022-12-04T04:57:32.605Z,-1.16
2022-12-04T05:00:01.137Z,-1.11
2022-12-04T05:02:28.871Z,-1.16
2022-12-04T05:04:56.659Z,-1.05
2022-12-04T05:07:23.824Z,-1.08
2022-12-04T05:09:51.322Z,-0.87
2022-12-04T05:12:18.476Z,-0.73
2022-12-04T05:14:48.380Z,-0.90
2022-12-04T05:17:16.082Z,-0.99
2022-12-04T05:19:59.309Z,-1.04
2022-12-04T05:22:28.949Z,-1.06
2022-12-04T05:24:56.394Z,-0.91
2022-12-04T05:27:25.447Z,-0.96
2022-12-04T05:29:54.604Z,-0.75
2022-12-04T05:32:24.104Z,-0.97
2022-12-04T05:34:53.251Z,-0.97
2022-12-04T05:37:21.113Z,-1.04
2022-12-04T05:39:48.999Z,-0.93
2022-12-04T05:42:16.246Z,-0.86
2022-12-04T05:44:43.775Z,-0.66
2022-12-04T05:47:11.262Z,-0.72
2022-12-04T05:49:38.770Z,-1.09
2022-12-04T05:52:06.908Z,-1.13
2022-12-04T05:54:34.389Z,-0.82
2022-12-04T05:57:01.708Z,-0.90
2022-12-04T05:59:29.181Z,-0.88
2022-12-04T06:01:56.400Z,-0.63
2022-12-04T06:04:24.379Z,-0.71
2022-12-04T06:06:52.837Z,-0.75
2022-12-04T06:09:20.964Z,-0.62
2022-12-04T06:11:48.154Z,-0.55
2022-12-04T06:14:16.502Z,-0.81
2022-12-04T06:16:46.098Z,-0.93
2022-12-04T06:19:17.945Z,-0.80
2022-12-04T06:21:47.603Z,-0.89
2022-12-04T06:24:20.254Z,-0.80
2022-12-04T06:27:18.836Z,-0.59
2022-12-04T06:29:35.626Z,-0.58
2022-12-04T06:32:03.508Z,-0.56
2022-12-04T06:34:32.562Z,-0.89
2022-12-04T06:36:59.779Z,-0.87
2022-12-04T06:39:27.224Z,-0.86
2022-12-04T06:41:54.426Z,-1.08
2022-12-04T06:44:21.881Z,-0.77
2022-12-04T06:46:50.170Z,-1.01
2022-12-04T06:49:17.847Z,-0.80
2022-12-04T06:51:44.987Z,-0.85
2022-12-04T06:54:12.524Z,-0.77
2022-12-04T06:56:39.672Z,-0.93
2022-12-04T06:59:07.125Z,-0.66
2022-12-04T07:01:34.914Z,-0.69
2022-12-04T07:04:04.327Z,-0.65
2022-12-04T07:06:34.146Z,-0.60
2022-12-04T07:09:07.673Z,-0.79
2022-12-04T07:11:34.857Z,-0.72
2022-12-04T07:14:02.764Z,-0.59
2022-12-04T07:16:35.325Z,-0.62
2022-12-04T07:19:06.116Z,-0.66
2022-12-04T07:21:34.647Z,-0.85
2022-12-04T07:24:02.439Z,-0.97
2022-12-04T07:26:30.499Z,-0.82
2022-12-04T07:28:58.982Z,-0.75
2022-12-04T07:31:28.524Z,-0.77
2022-12-04T07:33:57.234Z,-0.88
2022-12-04T07:36:25.798Z,-0.88
2022-12-04T07:38:55.566Z,-0.78
2022-12-04T07:41:23.626Z,-0.91
2022-12-04T07:43:51.218Z,-0.82
2022-12-04T07:46:21.809Z,-0.82
2022-12-04T07:48:49.346Z,-0.85
2022-12-04T07:51:19.087Z,-0.79
2022-12-04T07:53:48.248Z,-0.82
2022-12-04T07:56:15.770Z,-0.82
2022-12-04T07:58:43.588Z,-0.89
2022-12-04T08:01:16.553Z,-0.63
2022-12-04T08:03:48.353Z,-0.58
2022-12-04T08:06:20.064Z,-0.73
2022-12-04T08:08:48.850Z,-0.80
2022-12-04T08:11:18.859Z,-0.54
2022-12-04T08:13:46.352Z,-0.72
2022-12-04T08:16:14.795Z,-0.58
2022-12-04T08:18:46.813Z,-0.47
2022-12-04T08:21:19.370Z,-0.59
2022-12-04T08:23:48.285Z,-0.53
2022-12-04T08:26:15.524Z,-0.79
2022-12-04T08:28:43.120Z,-0.63
2022-12-04T08:31:14.354Z,-0.80
2022-12-04T08:33:43.066Z,-0.72
2022-12-04T08:36:13.401Z,-0.69
2022-12-04T08:38:41.172Z,-0.54
2022-12-04T08:41:11.413Z,-0.66
2022-12-04T08:43:39.098Z,-0.73
2022-12-04T08:46:09.102Z,-0.82
2022-12-04T08:48:36.753Z,-0.58
2022-12-04T08:51:04.998Z,-0.57
2022-12-04T08:53:32.525Z,-0.64
2022-12-04T08:56:03.100Z,-0.80
2022-12-04T08:58:30.766Z,-0.85
2022-12-04T09:01:05.083Z,-0.67
2022-12-04T09:03:32.749Z,-0.96
2022-12-04T09:06:01.776Z,-0.88
2022-12-04T09:08:29.457Z,-0.79
2022-12-04T09:11:03.696Z,-0.86
2022-12-04T09:13:31.281Z,-0.81
2022-12-04T09:15:59.191Z,-0.62
2022-12-04T09:18:26.822Z,-0.24
2022-12-04T09:21:02.196Z,-0.59
2022-12-04T09:23:30.223Z,-0.69
2022-12-04T09:25:57.525Z,-0.77
2022-12-04T09:28:25.256Z,-0.63
2022-12-04T09:31:03.985Z,-0.66
2022-12-04T09:33:32.706Z,-0.77
2022-12-04T09:36:00.865Z,-0.87
2022-12-04T09:38:29.577Z,-0.63
2022-12-04T09:41:18.963Z,-0.50
2022-12-04T09:44:08.345Z,-0.52
2022-12-04T09:46:53.743Z,-0.71
2022-12-04T09:49:33.986Z,-0.71
2022-12-04T09:52:06.713Z,-0.56
2022-12-04T09:54:40.691Z,-0.53
2022-12-04T09:57:18.344Z,-0.84
2022-12-04T09:59:46.345Z,-0.72
2022-12-04T10:02:21.139Z,-0.67
2022-12-04T10:04:48.775Z,-0.68
2022-12-04T10:07:25.601Z,-0.68
2022-12-04T10:10:22.415Z,-0.75
2022-12-04T10:12:54.863Z,-0.61
2022-12-04T10:15:28.630Z,-0.67
2022-12-04T10:18:04.758Z,-0.49
2022-12-04T10:20:50.500Z,-0.64
2022-12-04T10:23:29.805Z,-0.69
2022-12-04T10:25:59.131Z,-0.78
2022-12-04T10:28:39.864Z,-0.72
2022-12-04T10:31:13.338Z,-0.62
2022-12-04T10:34:05.848Z,-0.50
2022-12-04T10:36:35.180Z,-0.55
2022-12-04T10:39:27.096Z,-0.52
2022-12-04T10:42:01.233Z,-0.42
2022-12-04T10:44:28.474Z,-0.60
2022-12-04T10:47:01.829Z,-0.40
2022-12-04T10:49:32.379Z,-0.45
2022-12-04T10:52:00.038Z,-0.55
2022-12-04T10:54:32.175Z,-0.39
2022-12-04T10:57:12.109Z,-0.33
2022-12-04T10:59:53.724Z,-0.24
2022-12-04T11:02:21.700Z,-0.57
2022-12-04T11:04:58.717Z,-0.52
2022-12-04T11:07:36.112Z,-0.39
2022-12-04T11:10:18.008Z,-0.44
2022-12-04T11:12:55.993Z,-0.43
2022-12-04T11:15:24.030Z,-0.47
2022-12-04T11:17:55.422Z,-0.68
2022-12-04T11:20:26.431Z,-0.44
2022-12-04T11:22:57.259Z,-0.53
2022-12-04T11:25:27.958Z,-0.23
2022-12-04T11:27:58.636Z,-0.69
2022-12-04T11:30:34.256Z,-0.63
2022-12-04T11:33:04.678Z,-0.44
2022-12-04T11:35:32.917Z,-0.27
2022-12-04T11:38:13.198Z,-0.34
2022-12-04T11:40:48.052Z,-0.62
2022-12-04T11:43:17.853Z,-0.56
2022-12-04T11:45:55.635Z,-0.74
2022-12-04T11:48:23.277Z,-0.42
2022-12-04T11:50:53.500Z,-0.42
2022-12-04T11:53:25.388Z,-0.55
2022-12-04T11:56:10.283Z,-0.67
2022-12-04T11:58:52.629Z,-0.63
2022-12-04T12:01:37.943Z,-0.67
2022-12-04T12:04:23.776Z,-0.31
2022-12-04T12:07:15.683Z,-0.51
2022-12-04T12:10:12.053Z,-0.57
2022-12-04T12:12:51.408Z,-0.51
2022-12-04T12:15:37.530Z,-0.39
2022-12-04T12:18:46.309Z,-0.50
2022-12-04T12:21:29.157Z,-0.53
2022-12-04T12:24:12.736Z,-0.52
2022-12-04T12:27:05.541Z,-0.57
2022-12-04T12:29:38.623Z,-0.61
2022-12-04T12:32:32.650Z,-0.61
2022-12-04T12:35:01.064Z,-0.65
2022-12-04T12:37:44.113Z,-0.51
2022-12-04T12:40:15.376Z,-0.50
2022-12-04T12:42:58.395Z,-0.60
2022-12-04T12:45:40.897Z,-0.72
2022-12-04T12:48:22.645Z,-0.56
2022-12-04T12:51:14.833Z,-0.59
2022-12-04T12:53:48.118Z,-0.75
2022-12-04T12:56:18.897Z,-0.58
2022-12-04T12:58:53.731Z,-0.43
2022-12-04T13:01:29.262Z,-0.48
2022-12-04T13:04:32.215Z,-0.61
2022-12-04T13:07:15.554Z,-0.65
2022-12-04T13:09:50.358Z,-0.64
2022-12-04T13:12:19.513Z,-0.39
2022-12-04T13:14:49.204Z,-0.72
2022-12-04T13:17:34.033Z,-0.53
2022-12-04T13:20:10.246Z,-0.73
2022-12-04T13:23:07.198Z,-0.61
2022-12-04T13:25:52.974Z,-0.70
2022-12-04T13:28:38.422Z,-0.58
2022-12-04T13:31:22.328Z,-0.46
2022-12-04T13:34:18.172Z,-0.76
2022-12-04T13:36:52.931Z,-0.74
2022-12-04T13:39:32.089Z,-0.76
2022-12-04T13:42:02.804Z,-0.79
2022-12-04T13:44:31.746Z,-0.74
2022-12-04T13:47:02.588Z,-0.63
2022-12-04T13:49:33.513Z,-0.60
2022-12-04T13:52:05.942Z,-0.54
2022-12-04T13:54:36.810Z,-0.48
2022-12-04T13:57:22.058Z,-0.74
2022-12-04T13:59:49.886Z,-0.68
2022-12-04T14:02:22.830Z,-0.37
2022-12-04T14:04:55.271Z,-0.61
2022-12-04T14:07:30.631Z,-0.46
2022-12-04T14:10:04.190Z,-0.33
2022-12-04T14:12:39.420Z,-0.72
2022-12-04T14:15:26.974Z,-0.56
2022-12-04T14:18:19.981Z,-0.62
2022-12-04T14:20:58.782Z,-0.45
2022-12-04T14:23:40.614Z,-0.64
2022-12-04T14:27:10.016Z,-0.60
2022-12-04T14:29:28.335Z,-0.78
2022-12-04T14:31:58.580Z,-0.53
2022-12-04T14:34:32.086Z,-0.69
2022-12-04T14:37:00.073Z,-0.72
2022-12-04T14:39:38.114Z,-0.48
2022-12-04T14:42:18.127Z,-0.59
2022-12-04T14:44:47.522Z,-0.73
2022-12-04T14:47:26.904Z,-0.72
2022-12-04T14:50:22.280Z,-0.60
2022-12-04T14:53:16.659Z,-0.65
2022-12-04T14:56:07.268Z,-0.62
2022-12-04T14:58:38.410Z,-0.63
2022-12-04T15:01:28.608Z,-0.63
2022-12-04T15:04:02.124Z,-0.64
2022-12-04T15:06:32.473Z,-0.66
2022-12-04T15:09:40.821Z,-0.43
2022-12-04T15:12:34.878Z,-0.51
2022-12-04T15:15:08.031Z,-0.77
2022-12-04T15:17:35.574Z,-0.71
2022-12-04T15:20:19.946Z,-0.64
2022-12-04T15:22:47.620Z,-0.52
2022-12-04T15:25:22.584Z,-0.37
2022-12-04T15:27:53.448Z,-0.65
2022-12-04T15:30:23.128Z,-0.66
2022-12-04T15:32:53.520Z,-0.60
2022-12-04T15:35:29.520Z,-0.68
2022-12-04T15:37:59.441Z,-0.79
2022-12-04T15:40:28.990Z,-0.68
2022-12-04T15:43:13.631Z,-0.70
2022-12-04T15:45:41.740Z,-0.66
2022-12-04T15:48:10.466Z,-0.71
2022-12-04T15:50:37.747Z,-0.67
2022-12-04T15:53:26.979Z,-0.63
2022-12-04T15:55:57.346Z,-0.71
2022-12-04T15:58:28.585Z,-0.53
2022-12-04T16:01:02.245Z,-0.61
2022-12-04T16:03:32.262Z,-0.46
2022-12-04T16:06:24.543Z,-0.78
2022-12-04T16:09:00.779Z,-0.48
2022-12-04T16:11:34.964Z,-0.66
2022-12-04T16:14:13.621Z,-0.51
2022-12-04T16:16:43.859Z,-0.70
2022-12-04T16:19:34.444Z,-0.67
2022-12-04T16:22:04.969Z,-0.67
2022-12-04T16:24:32.613Z,-0.66
2022-12-04T16:27:01.110Z,-0.67
2022-12-04T16:29:30.638Z,-0.63
2022-12-04T16:32:03.018Z,-0.67
2022-12-04T16:34:31.638Z,-0.50
2022-12-04T16:36:59.433Z,-0.56
2022-12-04T16:39:26.973Z,-0.71
2022-12-04T16:41:54.264Z,-0.44
2022-12-04T16:44:21.892Z,-0.47
2022-12-04T16:46:50.983Z,-0.49
2022-12-04T16:49:18.902Z,-0.74
2022-12-04T16:51:50.898Z,-0.68
2022-12-04T16:54:18.837Z,-0.67
2022-12-04T16:56:46.036Z,-0.63
2022-12-04T16:59:13.529Z,-0.61
2022-12-04T17:01:45.075Z,-0.64
2022-12-04T17:04:12.715Z,-0.58
2022-12-04T17:06:40.733Z,-0.62
2022-12-04T17:09:08.907Z,-0.58
2022-12-04T17:11:37.041Z,-0.41
2022-12-04T17:14:07.271Z,-0.60
2022-12-04T17:16:41.198Z,-0.35
2022-12-04T17:19:10.310Z,-0.59
2022-12-04T17:21:38.319Z,-0.54
2022-12-04T17:24:06.552Z,-0.45
2022-12-04T17:26:33.792Z,-0.53
2022-12-04T17:29:02.428Z,-0.46
2022-12-04T17:31:30.720Z,-0.61
2022-12-04T17:33:58.383Z,-0.54
2022-12-04T17:36:27.703Z,-0.49
2022-12-04T17:38:57.289Z,-0.54
2022-12-04T17:41:25.205Z,-0.41
2022-12-04T17:43:52.520Z,-0.59
2022-12-04T17:46:24.480Z,-0.47
2022-12-04T17:48:52.676Z,-0.31
2022-12-04T17:51:22.430Z,-0.44
2022-12-04T17:53:50.883Z,-0.64
2022-12-04T17:56:21.431Z,-0.37
2022-12-04T17:58:49.617Z,-0.38
2022-12-04T18:01:22.568Z,-0.38
2022-12-04T18:03:51.648Z,-0.54
2022-12-04T18:06:24.988Z,-0.54
2022-12-04T18:08:53.292Z,-0.45
2022-12-04T18:11:24.743Z,-0.48
2022-12-04T18:13:57.480Z,-0.59
2022-12-04T18:16:26.062Z,-0.35
2022-12-04T18:18:57.827Z,-0.40
2022-12-04T18:21:25.433Z,-0.39
2022-12-04T18:23:53.059Z,-0.49
2022-12-04T18:26:22.813Z,-0.51
2022-12-04T18:28:50.626Z,-0.34
2022-12-04T18:31:19.253Z,-0.42
2022-12-04T18:33:47.083Z,-0.47
2022-12-04T18:36:18.859Z,-0.50
2022-12-04T18:38:46.749Z,-0.40
2022-12-04T18:41:15.127Z,-0.49
2022-12-04T18:43:44.648Z,-0.39
2022-12-04T18:46:14.392Z,-0.27
2022-12-04T18:48:44.089Z,-0.48
2022-12-04T18:51:30.159Z,-0.50
2022-12-04T18:54:03.095Z,-0.61
2022-12-04T18:56:32.430Z,-0.34
2022-12-04T18:59:02.534Z,-0.25
2022-12-04T19:01:31.532Z,-0.31
2022-12-04T19:04:04.583Z,-0.31
2022-12-04T19:06:38.143Z,-0.35
2022-12-04T19:09:09.510Z,-0.37
2022-12-04T19:11:37.669Z,-0.49
2022-12-04T19:14:12.520Z,-0.54
2022-12-04T19:16:44.171Z,-0.51
2022-12-04T19:19:12.551Z,-0.49
2022-12-04T19:21:40.522Z,-0.51
2022-12-04T19:24:10.494Z,-0.46
2022-12-04T19:26:38.664Z,-0.56
2022-12-04T19:29:07.168Z,-0.55
2022-12-04T19:31:36.875Z,-0.50
2022-12-04T19:34:06.353Z,-0.28
2022-12-04T19:36:35.015Z,-0.17
2022-12-04T19:39:04.301Z,-0.22
2022-12-04T19:41:37.313Z,-0.25
2022-12-04T19:44:26.037Z,-0.33
2022-12-04T19:46:52.850Z,-0.39
2022-12-04T19:49:20.096Z,-0.54
2022-12-04T19:51:48.483Z,-0.56
2022-12-04T19:54:16.245Z,-0.36
2022-12-04T19:56:46.418Z,-0.35
2022-12-04T19:59:13.650Z,-0.40
2022-12-04T20:01:41.246Z,-0.26
2022-12-04T20:04:09.203Z,-0.21
2022-12-04T20:06:39.676Z,-0.26
2022-12-04T20:09:10.274Z,-0.07
2022-12-04T20:11:40.391Z,-0.30
2022-12-04T20:14:08.696Z,-0.18
2022-12-04T20:16:37.684Z,-0.34
2022-12-04T20:19:06.582Z,-0.28
2022-12-04T20:21:34.732Z,-0.54
2022-12-04T20:24:04.931Z,-0.47
2022-12-04T20:26:35.687Z,-0.28
2022-12-04T20:29:03.850Z,-0.33
2022-12-04T20:31:39.643Z,-0.50
2022-12-04T20:34:14.383Z,-0.55
2022-12-04T20:36:44.182Z,-0.53
2022-12-04T20:39:12.918Z,-0.54
2022-12-04T20:41:41.153Z,-0.37
2022-12-04T20:44:12.307Z,-0.61
2022-12-04T20:46:40.826Z,-0.53
2022-12-04T20:49:13.482Z,-0.53
2022-12-04T20:51:45.093Z,-0.59
2022-12-04T20:54:15.989Z,-0.43
2022-12-04T20:56:43.593Z,-0.07
2022-12-04T20:59:13.362Z,-0.43
2022-12-04T21:01:42.155Z,-0.45
2022-12-04T21:04:09.890Z,-0.58
2022-12-04T21:06:40.538Z,-0.52
2022-12-04T21:09:12.953Z,-0.51
2022-12-04T21:12:26.757Z,-0.45
2022-12-04T21:15:12.581Z,-0.33
2022-12-04T21:17:40.684Z,-0.60
2022-12-04T21:20:09.861Z,-0.66
2022-12-04T21:22:37.864Z,-0.61
2022-12-04T21:25:05.328Z,-0.50
2022-12-04T21:27:32.787Z,-0.66
2022-12-04T21:30:00.361Z,-0.61
2022-12-04T21:32:28.002Z,-0.50
2022-12-04T21:34:55.252Z,-0.70
2022-12-04T21:37:22.850Z,-0.58
2022-12-04T21:39:50.200Z,-0.71
2022-12-04T21:42:33.039Z,-0.59
2022-12-04T21:45:01.264Z,-0.67
2022-12-04T21:47:29.857Z,-0.77
2022-12-04T21:49:57.304Z,-0.66
2022-12-04T21:52:25.724Z,-0.68
2022-12-04T21:54:54.507Z,-0.62
2022-12-04T21:57:22.586Z,-0.62
2022-12-04T21:59:52.411Z,-0.73
2022-12-04T22:02:20.616Z,-0.54
2022-12-04T22:04:47.964Z,-0.59
2022-12-04T22:07:15.488Z,-0.62
2022-12-04T22:09:44.633Z,-0.48
2022-12-04T22:12:41.035Z,-0.56
2022-12-04T22:14:59.313Z,-0.71
2022-12-04T22:17:29.705Z,-0.69
2022-12-04T22:19:57.165Z,-0.68
2022-12-04T22:22:24.870Z,-0.60
2022-12-04T22:24:52.034Z,-0.76
2022-12-04T22:27:19.528Z,-0.59
2022-12-04T22:29:50.637Z,-0.79
2022-12-04T22:32:19.911Z,-0.65
2022-12-04T22:34:50.563Z,-0.83
2022-12-04T22:37:18.041Z,-0.74
2022-12-04T22:39:45.204Z,-0.73
2022-12-04T22:42:12.700Z,-0.81
2022-12-04T22:44:39.875Z,-0.71
2022-12-04T22:47:07.475Z,-0.61
2022-12-04T22:49:34.660Z,-0.82
2022-12-04T22:52:02.115Z,-0.67
2022-12-04T22:54:29.279Z,-0.85
2022-12-04T22:56:56.837Z,-0.87
2022-12-04T22:59:24.016Z,-0.83
2022-12-04T23:01:51.516Z,-0.86
2022-12-04T23:04:18.752Z,-0.80
2022-12-04T23:06:46.194Z,-0.84
2022-12-04T23:09:16.006Z,-0.72
2022-12-04T23:11:44.432Z,-0.63
2022-12-04T23:14:14.467Z,-0.86
2022-12-04T23:16:42.258Z,-0.75
2022-12-04T23:19:12.534Z,-0.90
2022-12-04T23:21:40.742Z,-0.78
2022-12-04T23:24:08.138Z,-0.87
2022-12-04T23:26:42.197Z,-0.81
2022-12-04T23:29:29.531Z,-0.72
2022-12-04T23:31:56.946Z,-0.91
2022-12-04T23:34:24.186Z,-0.87
2022-12-04T23:36:51.602Z,-0.71
2022-12-04T23:39:18.736Z,-0.92
2022-12-04T23:41:46.223Z,-0.92
2022-12-04T23:44:13.346Z,-0.77
2022-12-04T23:46:40.839Z,-0.97
2022-12-04T23:49:08.726Z,-0.86
2022-12-04T23:51:36.158Z,-0.72
2022-12-04T23:54:03.371Z,-0.83
2022-12-04T23:56:30.842Z,-1.02
2022-12-04T23:58:58.770Z,-0.98
